JAF84E LFPG-GMFO

Flight info

Callsign JAF84E
Flight time 2h 17m
Altitude 35000
Route OLZOM DCT KETEX DCT ARTAX DCT FISTO DCT ANETO N860 AMR M372 ESAMI UM372 IXIRI UW700 DIGEX
Aircraft B738/M-SDE2E3FGHIRWXY/LB1

Departure

Time 2026-04-13 17:42
Airport Charles de Gaulle International Airport (LFPG)

Arrival

Time 2026-04-13 20:00
Airport Oujda Angads Airport (GMFO)
Time Latitude Longitude Altitude Speed Heading
2026-04-13 17:31 49.00563 2.55822 361 ft 4 kts 269°
2026-04-13 17:32 49.00562 2.55782 363 ft 4 kts 268°
2026-04-13 17:32 49.00561 2.55743 362 ft 4 kts 268°
2026-04-13 17:32 49.00558 2.55695 356 ft 6 kts 259°
2026-04-13 17:32 49.00550 2.55634 356 ft 6 kts 263°
2026-04-13 17:33 49.00545 2.55573 353 ft 6 kts 262°
2026-04-13 17:33 49.00532 2.55515 361 ft 6 kts 241°
2026-04-13 17:33 49.00463 2.55470 353 ft 15 kts 174°
2026-04-13 17:33 49.00357 2.55510 358 ft 15 kts 164°
2026-04-13 17:34 49.00158 2.55595 356 ft 14 kts 164°
2026-04-13 17:34 49.00065 2.55639 358 ft 14 kts 161°
2026-04-13 17:34 48.99953 2.55699 360 ft 19 kts 148°
2026-04-13 17:35 48.99903 2.55877 353 ft 18 kts 101°
2026-04-13 17:35 48.99890 2.56068 353 ft 18 kts 89°
2026-04-13 17:35 48.99902 2.56252 359 ft 17 kts 80°
2026-04-13 17:35 48.99914 2.56430 357 ft 17 kts 88°
2026-04-13 17:36 48.99919 2.56602 359 ft 16 kts 83°
2026-04-13 17:36 48.99929 2.56766 356 ft 15 kts 85°
2026-04-13 17:36 48.99935 2.56923 353 ft 15 kts 87°
2026-04-13 17:36 48.99944 2.57075 358 ft 14 kts 83°
2026-04-13 17:37 48.99956 2.57278 353 ft 24 kts 85°
2026-04-13 17:37 48.99971 2.57559 353 ft 27 kts 85°
2026-04-13 17:37 48.99986 2.57827 360 ft 25 kts 84°
2026-04-13 17:37 49.00001 2.58083 353 ft 23 kts 85°
2026-04-13 17:38 49.00013 2.58324 357 ft 22 kts 85°
2026-04-13 17:38 49.00024 2.58558 353 ft 22 kts 86°
2026-04-13 17:38 49.00031 2.58710 353 ft 21 kts 85°
2026-04-13 17:38 49.00052 2.59072 355 ft 31 kts 85°
2026-04-13 17:39 49.00070 2.59376 355 ft 17 kts 85°
2026-04-13 17:39 49.00046 2.59496 360 ft 10 kts 150°
2026-04-13 17:39 48.99993 2.59556 355 ft 10 kts 117°
2026-04-13 17:39 48.99972 2.59618 355 ft 10 kts 124°
2026-04-13 17:40 48.99914 2.59659 353 ft 9 kts 176°
2026-04-13 17:40 48.99850 2.59662 353 ft 9 kts 184°
2026-04-13 17:40 48.99803 2.59593 354 ft 10 kts 254°
2026-04-13 17:40 48.99799 2.59562 358 ft 0 kts 263°
2026-04-13 17:42 48.99799 2.59554 356 ft 5 kts 263°
2026-04-13 17:42 48.99769 2.59024 357 ft 99 kts 265°
2026-04-13 17:42 48.99690 2.57530 389 ft 179 kts 265°
2026-04-13 17:42 48.99594 2.55494 1178 ft 203 kts 267°
2026-04-13 17:43 48.99493 2.53315 2276 ft 203 kts 268°
2026-04-13 17:43 48.99398 2.51193 3044 ft 204 kts 267°
2026-04-13 17:43 48.99268 2.48920 3383 ft 225 kts 266°
2026-04-13 17:43 48.99105 2.46466 3931 ft 239 kts 265°
2026-04-13 17:44 48.98953 2.43976 4817 ft 237 kts 266°
2026-04-13 17:44 48.98818 2.41529 5944 ft 227 kts 266°
2026-04-13 17:44 48.98686 2.39128 6770 ft 229 kts 266°
2026-04-13 17:44 48.98551 2.36695 7524 ft 231 kts 266°
2026-04-13 17:45 48.98415 2.34246 8288 ft 233 kts 266°
2026-04-13 17:45 48.98278 2.31766 9032 ft 237 kts 265°
2026-04-13 17:45 48.98137 2.29251 9824 ft 239 kts 265°
2026-04-13 17:45 48.97995 2.26713 10525 ft 242 kts 265°
2026-04-13 17:46 48.97723 2.24145 11032 ft 256 kts 248°
2026-04-13 17:46 48.96555 2.21973 11230 ft 282 kts 213°
2026-04-13 17:46 48.94649 2.20986 11439 ft 309 kts 187°
2026-04-13 17:46 48.92429 2.21216 11740 ft 330 kts 170°
2026-04-13 17:47 48.90271 2.22524 12378 ft 340 kts 150°
2026-04-13 17:47 48.88288 2.24525 13202 ft 343 kts 147°
2026-04-13 17:47 48.86304 2.26564 14019 ft 346 kts 148°
2026-04-13 17:47 48.84275 2.28574 14749 ft 349 kts 149°
2026-04-13 17:48 48.82239 2.30641 15474 ft 354 kts 147°
2026-04-13 17:48 48.80186 2.32745 16213 ft 358 kts 150°
2026-04-13 17:48 48.78045 2.34715 16958 ft 361 kts 153°
2026-04-13 17:48 48.75850 2.36605 17709 ft 364 kts 155°
2026-04-13 17:49 48.73506 2.38014 18405 ft 363 kts 170°
2026-04-13 17:49 48.71037 2.38484 18988 ft 362 kts 183°
2026-04-13 17:49 48.68521 2.38141 19536 ft 365 kts 191°
2026-04-13 17:49 48.65990 2.37568 20083 ft 370 kts 191°
2026-04-13 17:50 48.63425 2.36963 20628 ft 376 kts 191°
2026-04-13 17:50 48.60811 2.36350 21123 ft 383 kts 191°
2026-04-13 17:50 48.58158 2.35741 21647 ft 388 kts 191°
2026-04-13 17:50 48.55469 2.35137 22195 ft 393 kts 191°
2026-04-13 17:51 48.52744 2.34533 22716 ft 398 kts 191°
2026-04-13 17:51 48.49974 2.33925 23219 ft 404 kts 191°
2026-04-13 17:51 48.47174 2.33315 23700 ft 409 kts 191°
2026-04-13 17:51 48.44344 2.32700 24163 ft 412 kts 191°
2026-04-13 17:52 48.41527 2.32089 24661 ft 414 kts 191°
2026-04-13 17:52 48.38659 2.31467 25069 ft 419 kts 191°
2026-04-13 17:52 48.35758 2.30838 25503 ft 422 kts 191°
2026-04-13 17:52 48.32847 2.30207 25974 ft 424 kts 191°
2026-04-13 17:53 48.29916 2.29574 26427 ft 427 kts 191°
2026-04-13 17:53 48.26959 2.28935 26846 ft 430 kts 191°
2026-04-13 17:53 48.23984 2.28293 27266 ft 433 kts 191°
2026-04-13 17:53 48.20984 2.27646 27690 ft 436 kts 191°
2026-04-13 17:54 48.17984 2.27000 28179 ft 435 kts 191°
2026-04-13 17:54 48.15011 2.26357 28656 ft 436 kts 191°
2026-04-13 17:54 48.12003 2.25630 28985 ft 440 kts 192°
2026-04-13 17:54 48.08971 2.24835 29310 ft 444 kts 192°
2026-04-13 17:55 48.05919 2.24011 29669 ft 447 kts 193°
2026-04-13 17:55 48.02854 2.23182 30023 ft 450 kts 193°
2026-04-13 17:55 47.99763 2.22353 30334 ft 452 kts 192°
2026-04-13 17:55 47.96654 2.21527 30617 ft 454 kts 192°
2026-04-13 17:56 47.93532 2.20704 30900 ft 457 kts 192°
2026-04-13 17:56 47.90389 2.19882 31189 ft 459 kts 192°
2026-04-13 17:56 47.87235 2.19059 31478 ft 460 kts 192°
2026-04-13 17:56 47.84068 2.18236 31759 ft 462 kts 192°
2026-04-13 17:57 47.80933 2.17422 32009 ft 464 kts 192°
2026-04-13 17:57 47.77741 2.16594 32242 ft 466 kts 192°
2026-04-13 17:57 47.74538 2.15764 32424 ft 470 kts 192°
2026-04-13 17:57 47.71306 2.14927 32658 ft 472 kts 192°
2026-04-13 17:58 47.68060 2.14088 32919 ft 473 kts 192°
2026-04-13 17:58 47.64810 2.13249 33169 ft 474 kts 192°
2026-04-13 17:58 47.61551 2.12408 33377 ft 476 kts 192°
2026-04-13 17:58 47.58291 2.11568 33586 ft 477 kts 192°
2026-04-13 17:59 47.55018 2.10726 33811 ft 477 kts 192°
2026-04-13 17:59 47.51744 2.09885 34040 ft 477 kts 192°
2026-04-13 17:59 47.48474 2.09046 34281 ft 476 kts 192°
2026-04-13 17:59 47.45214 2.08211 34517 ft 476 kts 192°
2026-04-13 18:00 47.41974 2.07381 34596 ft 480 kts 192°
2026-04-13 18:00 47.35328 2.05680 34773 ft 486 kts 192°
2026-04-13 18:00 47.31994 2.04830 34952 ft 486 kts 192°
2026-04-13 18:01 47.28663 2.03982 35038 ft 488 kts 192°
2026-04-13 18:01 47.21980 2.02285 35037 ft 485 kts 192°
2026-04-13 18:02 47.15377 2.00612 35034 ft 484 kts 192°
2026-04-13 18:02 47.08686 1.98918 35264 ft 487 kts 192°
2026-04-13 18:02 47.05356 1.98077 35532 ft 485 kts 192°
2026-04-13 18:03 47.02033 1.97240 35793 ft 484 kts 192°
2026-04-13 18:03 46.98717 1.96405 36010 ft 483 kts 192°
2026-04-13 18:03 46.95400 1.95571 36200 ft 483 kts 192°
2026-04-13 18:03 46.92081 1.94737 36343 ft 484 kts 192°
2026-04-13 18:04 46.88756 1.93902 36518 ft 484 kts 192°
2026-04-13 18:04 46.85427 1.93068 36736 ft 483 kts 192°
2026-04-13 18:04 46.82115 1.92239 36967 ft 482 kts 192°
2026-04-13 18:04 46.78854 1.91424 37161 ft 482 kts 192°
2026-04-13 18:05 46.75548 1.90599 37347 ft 482 kts 192°
2026-04-13 18:05 46.72244 1.89775 37530 ft 482 kts 192°
2026-04-13 18:05 46.68942 1.88953 37732 ft 481 kts 192°
2026-04-13 18:05 46.65643 1.88132 37928 ft 480 kts 192°
2026-04-13 18:06 46.62342 1.87312 38106 ft 480 kts 192°
2026-04-13 18:06 46.59048 1.86495 38276 ft 480 kts 192°
2026-04-13 18:06 46.55752 1.85678 38462 ft 479 kts 192°
2026-04-13 18:06 46.52459 1.84863 38609 ft 480 kts 192°
2026-04-13 18:07 46.49165 1.84049 38756 ft 480 kts 192°
2026-04-13 18:07 46.45878 1.83238 38910 ft 478 kts 192°
2026-04-13 18:07 46.42596 1.82429 39024 ft 478 kts 192°
2026-04-13 18:08 46.36044 1.80815 39037 ft 477 kts 192°
2026-04-13 18:08 46.29519 1.79213 39039 ft 475 kts 192°
2026-04-13 18:09 46.23016 1.77557 39037 ft 473 kts 194°
2026-04-13 18:09 46.16638 1.75524 39039 ft 472 kts 195°
2026-04-13 18:10 46.10239 1.73393 39040 ft 472 kts 195°
2026-04-13 18:10 46.03814 1.71306 39041 ft 473 kts 195°
2026-04-13 18:11 45.97371 1.69257 39044 ft 474 kts 195°
2026-04-13 18:11 45.90910 1.67218 39041 ft 476 kts 195°
2026-04-13 18:12 45.84438 1.65188 39049 ft 477 kts 194°
2026-04-13 18:12 45.77943 1.63162 39046 ft 478 kts 194°
2026-04-13 18:13 45.71445 1.61121 39038 ft 478 kts 194°
2026-04-13 18:13 45.64939 1.59079 39041 ft 479 kts 194°
2026-04-13 18:14 45.58425 1.57042 39042 ft 479 kts 194°
2026-04-13 18:14 45.51948 1.55023 39029 ft 480 kts 194°
2026-04-13 18:15 45.45412 1.52991 39040 ft 480 kts 194°
2026-04-13 18:15 45.38868 1.50961 39045 ft 481 kts 194°
2026-04-13 18:16 45.32323 1.48935 39047 ft 482 kts 194°
2026-04-13 18:16 45.25761 1.46910 39043 ft 483 kts 194°
2026-04-13 18:17 45.19194 1.44888 39049 ft 483 kts 194°
2026-04-13 18:17 45.12627 1.42871 39044 ft 483 kts 194°
2026-04-13 18:18 45.06092 1.40869 39046 ft 483 kts 194°
2026-04-13 18:18 44.99515 1.38858 39048 ft 483 kts 194°
2026-04-13 18:19 44.92932 1.36850 39051 ft 483 kts 194°
2026-04-13 18:19 44.86352 1.34848 39049 ft 483 kts 194°
2026-04-13 18:20 44.79769 1.32850 39050 ft 483 kts 194°
2026-04-13 18:20 44.73192 1.30858 39050 ft 484 kts 194°
2026-04-13 18:21 44.66601 1.28867 39050 ft 484 kts 194°
2026-04-13 18:21 44.60053 1.26893 39041 ft 484 kts 194°
2026-04-13 18:22 44.53454 1.24907 39055 ft 485 kts 194°
2026-04-13 18:22 44.46842 1.22923 39053 ft 485 kts 194°
2026-04-13 18:23 44.40349 1.20611 39055 ft 484 kts 198°
2026-04-13 18:23 44.33872 1.18026 39057 ft 484 kts 198°
2026-04-13 18:24 44.27396 1.15448 39069 ft 484 kts 198°
2026-04-13 18:24 44.20900 1.12911 39054 ft 485 kts 198°
2026-04-13 18:25 44.14392 1.10397 39061 ft 485 kts 198°
2026-04-13 18:25 44.07874 1.07889 39067 ft 486 kts 198°
2026-04-13 18:26 44.01348 1.05381 39072 ft 486 kts 198°
2026-04-13 18:26 43.95917 1.03298 39075 ft 487 kts 198°
2026-04-13 18:27 43.88322 1.00390 39071 ft 487 kts 198°
2026-04-13 18:27 43.82839 0.98296 39079 ft 487 kts 198°
2026-04-13 18:28 43.76327 0.95814 39078 ft 488 kts 198°
2026-04-13 18:28 43.69786 0.93326 39085 ft 488 kts 198°
2026-04-13 18:29 43.63238 0.90842 39087 ft 488 kts 198°
2026-04-13 18:29 43.56687 0.88362 39097 ft 488 kts 198°
2026-04-13 18:30 43.50132 0.85886 39091 ft 488 kts 198°
2026-04-13 18:30 43.43584 0.83418 39093 ft 488 kts 198°
2026-04-13 18:31 43.37075 0.80971 39102 ft 488 kts 198°
2026-04-13 18:31 43.30512 0.78508 39103 ft 488 kts 198°
2026-04-13 18:32 43.23960 0.76055 39097 ft 488 kts 198°
2026-04-13 18:32 43.17413 0.73610 39110 ft 488 kts 198°
2026-04-13 18:33 43.10860 0.71168 39118 ft 488 kts 198°
2026-04-13 18:33 43.04338 0.68742 39120 ft 488 kts 198°
2026-04-13 18:34 42.94478 0.65085 39113 ft 490 kts 198°
2026-04-13 18:34 42.87881 0.62645 39116 ft 492 kts 198°
2026-04-13 18:35 42.81262 0.60202 39101 ft 493 kts 198°
2026-04-13 18:35 42.74625 0.57758 39088 ft 494 kts 198°
2026-04-13 18:36 42.67975 0.55364 39062 ft 495 kts 195°
2026-04-13 18:36 42.61195 0.53572 39035 ft 496 kts 192°
2026-04-13 18:37 42.54371 0.51953 39038 ft 497 kts 192°
2026-04-13 18:37 42.47596 0.50259 39006 ft 498 kts 193°
2026-04-13 18:38 42.40787 0.48516 38991 ft 498 kts 193°
2026-04-13 18:38 42.33991 0.46784 38953 ft 497 kts 192°
2026-04-13 18:39 42.27197 0.45049 38940 ft 496 kts 192°
2026-04-13 18:39 42.20413 0.43317 38939 ft 495 kts 192°
2026-04-13 18:40 42.13679 0.41603 38926 ft 494 kts 192°
2026-04-13 18:40 42.06913 0.39884 38928 ft 494 kts 192°
2026-04-13 18:41 42.00157 0.38172 38906 ft 493 kts 192°
2026-04-13 18:41 41.93427 0.36473 38914 ft 492 kts 192°
2026-04-13 18:42 41.86692 0.34782 38915 ft 491 kts 192°
2026-04-13 18:42 41.80009 0.33105 38913 ft 491 kts 192°
2026-04-13 18:43 41.73289 0.31424 38907 ft 492 kts 193°
2026-04-13 18:43 41.66558 0.29754 38922 ft 492 kts 192°
2026-04-13 18:44 41.59816 0.28088 38936 ft 493 kts 192°
2026-04-13 18:44 41.53059 0.26419 38933 ft 494 kts 192°
2026-04-13 18:45 41.46284 0.24749 38954 ft 495 kts 192°
2026-04-13 18:45 41.39504 0.23080 38963 ft 495 kts 192°
2026-04-13 18:46 41.32717 0.21407 38956 ft 496 kts 192°
2026-04-13 18:46 41.25938 0.19687 38980 ft 496 kts 192°
2026-04-13 18:47 41.19187 0.18018 38977 ft 496 kts 192°
2026-04-13 18:47 41.12395 0.16318 38971 ft 496 kts 195°
2026-04-13 18:48 41.05792 0.13779 38998 ft 494 kts 200°
2026-04-13 18:48 40.99236 0.11020 39005 ft 494 kts 199°
2026-04-13 18:49 40.92667 0.08368 39006 ft 494 kts 199°
2026-04-13 18:49 40.86079 0.05754 39002 ft 494 kts 199°
2026-04-13 18:50 40.79481 0.03102 39003 ft 495 kts 199°
2026-04-13 18:50 40.72932 0.00464 38998 ft 495 kts 199°
2026-04-13 18:51 40.66336 -0.02184 39017 ft 495 kts 199°
2026-04-13 18:51 40.59743 -0.04824 39019 ft 495 kts 199°
2026-04-13 18:52 40.53146 -0.07454 39050 ft 495 kts 199°
2026-04-13 18:52 40.46553 -0.10057 39061 ft 495 kts 199°
2026-04-13 18:53 40.39941 -0.12660 39073 ft 495 kts 199°
2026-04-13 18:53 40.33335 -0.15260 39094 ft 496 kts 199°
2026-04-13 18:54 40.26720 -0.17860 39092 ft 496 kts 199°
2026-04-13 18:54 40.20139 -0.20452 39073 ft 496 kts 199°
2026-04-13 18:55 40.13524 -0.23069 39047 ft 496 kts 199°
2026-04-13 18:55 40.06908 -0.25682 38977 ft 496 kts 199°
2026-04-13 18:56 40.00300 -0.28281 38974 ft 496 kts 199°
2026-04-13 18:56 39.93669 -0.30828 38979 ft 497 kts 198°
2026-04-13 18:57 39.87015 -0.33359 38994 ft 498 kts 199°
2026-04-13 18:57 39.80382 -0.35946 38975 ft 498 kts 199°
2026-04-13 18:58 39.73789 -0.38527 38993 ft 498 kts 199°
2026-04-13 18:58 39.67147 -0.41114 38997 ft 498 kts 199°
2026-04-13 18:59 39.60493 -0.43696 38987 ft 498 kts 199°
2026-04-13 18:59 39.53849 -0.46270 38995 ft 498 kts 199°
2026-04-13 19:00 39.47286 -0.49082 38976 ft 495 kts 208°
2026-04-13 19:00 39.41278 -0.53250 38997 ft 493 kts 212°
2026-04-13 19:01 39.35275 -0.57543 38992 ft 493 kts 211°
2026-04-13 19:01 39.29239 -0.61771 39000 ft 493 kts 211°
2026-04-13 19:02 39.23184 -0.65962 38999 ft 493 kts 211°
2026-04-13 19:02 39.17120 -0.70150 39005 ft 493 kts 211°
2026-04-13 19:03 39.11070 -0.74325 39002 ft 493 kts 211°
2026-04-13 19:03 39.05010 -0.78499 38997 ft 493 kts 211°
2026-04-13 19:04 38.98949 -0.82669 39015 ft 494 kts 211°
2026-04-13 19:04 38.92923 -0.86809 39015 ft 494 kts 211°
2026-04-13 19:05 38.86845 -0.90978 39004 ft 494 kts 211°
2026-04-13 19:05 38.80775 -0.95134 39024 ft 494 kts 211°
2026-04-13 19:06 38.74706 -0.99280 39020 ft 495 kts 211°
2026-04-13 19:06 38.68628 -1.03422 39021 ft 495 kts 211°
2026-04-13 19:07 38.62542 -1.07562 39021 ft 495 kts 211°
2026-04-13 19:07 38.56505 -1.11661 39025 ft 494 kts 211°
2026-04-13 19:08 38.50430 -1.15780 39014 ft 494 kts 211°
2026-04-13 19:08 38.44345 -1.19898 39026 ft 494 kts 211°
2026-04-13 19:09 38.38265 -1.24005 39027 ft 495 kts 211°
2026-04-13 19:09 38.32180 -1.28107 39033 ft 495 kts 211°
2026-04-13 19:10 38.26086 -1.32207 39028 ft 495 kts 211°
2026-04-13 19:10 38.19989 -1.36301 39027 ft 495 kts 211°
2026-04-13 19:11 38.13927 -1.40365 39038 ft 496 kts 211°
2026-04-13 19:11 38.07818 -1.44452 39029 ft 496 kts 211°
2026-04-13 19:12 38.01709 -1.48531 39035 ft 495 kts 211°
2026-04-13 19:12 37.96636 -1.51914 39017 ft 495 kts 211°
2026-04-13 19:13 37.90537 -1.55973 39019 ft 495 kts 211°
2026-04-13 19:13 37.83418 -1.60618 39030 ft 495 kts 211°
2026-04-13 19:14 37.78318 -1.63909 39041 ft 494 kts 211°
2026-04-13 19:14 37.72189 -1.67867 39041 ft 495 kts 211°
2026-04-13 19:15 37.66054 -1.71830 39037 ft 494 kts 211°
2026-04-13 19:15 37.59934 -1.75779 39050 ft 494 kts 211°
2026-04-13 19:16 37.53805 -1.79727 39046 ft 494 kts 211°
2026-04-13 19:16 37.47666 -1.83672 39062 ft 495 kts 211°
2026-04-13 19:17 37.41556 -1.87592 39048 ft 495 kts 211°
2026-04-13 19:17 37.35419 -1.91522 39028 ft 495 kts 211°
2026-04-13 19:18 37.29280 -1.95448 39035 ft 495 kts 211°
2026-04-13 19:18 37.23140 -1.99375 39058 ft 495 kts 211°
2026-04-13 19:19 37.17053 -2.03424 39060 ft 495 kts 212°
2026-04-13 19:19 37.10974 -2.07516 39055 ft 496 kts 212°
2026-04-13 19:20 37.04884 -2.11586 39053 ft 496 kts 212°
2026-04-13 19:20 36.98769 -2.15650 39057 ft 496 kts 212°
2026-04-13 19:21 36.92711 -2.19668 39047 ft 496 kts 212°
2026-04-13 19:21 36.86610 -2.23709 39048 ft 495 kts 212°
2026-04-13 19:22 36.80359 -2.27396 38885 ft 501 kts 204°
2026-04-13 19:22 36.77078 -2.28839 38403 ft 498 kts 202°
2026-04-13 19:22 36.73782 -2.30203 37656 ft 498 kts 201°
2026-04-13 19:23 36.70494 -2.31542 37034 ft 497 kts 202°
2026-04-13 19:23 36.67215 -2.32892 36419 ft 496 kts 202°
2026-04-13 19:23 36.63957 -2.34256 35989 ft 491 kts 202°
2026-04-13 19:23 36.60774 -2.35606 35542 ft 488 kts 202°
2026-04-13 19:24 36.57575 -2.36975 35099 ft 484 kts 203°
2026-04-13 19:24 36.54393 -2.38343 34655 ft 482 kts 203°
2026-04-13 19:24 36.51233 -2.39703 34195 ft 480 kts 203°
2026-04-13 19:24 36.48087 -2.41057 33704 ft 478 kts 203°
2026-04-13 19:25 36.44954 -2.42402 33208 ft 475 kts 203°
2026-04-13 19:25 36.41840 -2.43737 32770 ft 471 kts 203°
2026-04-13 19:25 36.38753 -2.45057 32329 ft 468 kts 203°
2026-04-13 19:25 36.35685 -2.46369 31896 ft 465 kts 203°
2026-04-13 19:26 36.32637 -2.47670 31471 ft 461 kts 203°
2026-04-13 19:26 36.29612 -2.48961 31047 ft 458 kts 203°
2026-04-13 19:26 36.26606 -2.50243 30628 ft 455 kts 203°
2026-04-13 19:26 36.23612 -2.51518 30213 ft 453 kts 203°
2026-04-13 19:27 36.20644 -2.52782 29730 ft 450 kts 204°
2026-04-13 19:27 36.17693 -2.54037 29251 ft 446 kts 204°
2026-04-13 19:27 36.14803 -2.55266 28789 ft 443 kts 204°
2026-04-13 19:27 36.11901 -2.56498 28357 ft 439 kts 204°
2026-04-13 19:28 36.09021 -2.57720 27926 ft 436 kts 203°
2026-04-13 19:28 36.06157 -2.58934 27495 ft 432 kts 203°
2026-04-13 19:28 36.03326 -2.60134 27078 ft 429 kts 203°
2026-04-13 19:28 36.00507 -2.61328 26658 ft 426 kts 203°
2026-04-13 19:29 35.97709 -2.62513 26237 ft 424 kts 203°
2026-04-13 19:29 35.94922 -2.63692 25815 ft 422 kts 203°
2026-04-13 19:29 35.92155 -2.64861 25404 ft 419 kts 203°
2026-04-13 19:29 35.89397 -2.66027 24974 ft 418 kts 203°
2026-04-13 19:30 35.86649 -2.67187 24538 ft 417 kts 203°
2026-04-13 19:30 35.83910 -2.68341 24127 ft 415 kts 203°
2026-04-13 19:30 35.81184 -2.69480 23669 ft 414 kts 202°
2026-04-13 19:30 35.78446 -2.70605 23157 ft 413 kts 202°
2026-04-13 19:31 35.75723 -2.71716 22713 ft 411 kts 202°
2026-04-13 19:31 35.73017 -2.72819 22286 ft 408 kts 202°
2026-04-13 19:31 35.70332 -2.73915 21864 ft 404 kts 202°
2026-04-13 19:31 35.67701 -2.74990 21466 ft 402 kts 202°
2026-04-13 19:32 35.65054 -2.76072 21054 ft 399 kts 202°
2026-04-13 19:32 35.62434 -2.77143 20658 ft 396 kts 202°
2026-04-13 19:32 35.59823 -2.78211 20256 ft 394 kts 202°
2026-04-13 19:32 35.57234 -2.79268 19865 ft 391 kts 202°
2026-04-13 19:33 35.54653 -2.80320 19470 ft 389 kts 202°
2026-04-13 19:33 35.51996 -2.80975 19048 ft 394 kts 182°
2026-04-13 19:33 35.49305 -2.80411 18683 ft 394 kts 159°
2026-04-13 19:34 35.44954 -2.76608 17902 ft 383 kts 132°
2026-04-13 19:34 35.43081 -2.74297 17478 ft 381 kts 131°
2026-04-13 19:34 35.41230 -2.71985 17078 ft 378 kts 131°
2026-04-13 19:34 35.39388 -2.69693 16687 ft 376 kts 132°
2026-04-13 19:35 35.37553 -2.67429 16296 ft 373 kts 132°
2026-04-13 19:35 35.35720 -2.65182 15933 ft 372 kts 132°
2026-04-13 19:35 35.33894 -2.62957 15545 ft 370 kts 133°
2026-04-13 19:35 35.33729 -2.62757 15510 ft 370 kts 133°
2026-04-13 19:40 35.32390 -2.61044 15217 ft 367 kts 128°
2026-04-13 19:41 35.30664 -2.58746 14835 ft 366 kts 130°
2026-04-13 19:41 35.28859 -2.56548 14467 ft 364 kts 133°
2026-04-13 19:41 35.27045 -2.54429 14079 ft 363 kts 133°
2026-04-13 19:42 35.23414 -2.50171 13272 ft 359 kts 133°
2026-04-13 19:42 35.21630 -2.48049 12892 ft 356 kts 134°
2026-04-13 19:42 35.19868 -2.45944 12521 ft 352 kts 133°
2026-04-13 19:42 35.18149 -2.43880 12176 ft 348 kts 133°
2026-04-13 19:43 35.16451 -2.41836 12101 ft 337 kts 133°
2026-04-13 19:43 35.14800 -2.39847 12093 ft 329 kts 133°
2026-04-13 19:43 35.13117 -2.38023 12072 ft 318 kts 148°
2026-04-13 19:43 35.11128 -2.37004 12074 ft 304 kts 164°
2026-04-13 19:44 35.09070 -2.36316 11692 ft 306 kts 166°
2026-04-13 19:44 35.07013 -2.35683 11440 ft 303 kts 167°
2026-04-13 19:44 35.04983 -2.35064 11241 ft 298 kts 166°
2026-04-13 19:44 35.02973 -2.34445 10942 ft 298 kts 166°
2026-04-13 19:45 35.00985 -2.33825 10581 ft 300 kts 166°
2026-04-13 19:45 34.98976 -2.33193 10290 ft 299 kts 166°
2026-04-13 19:45 34.96971 -2.32559 10050 ft 295 kts 166°
2026-04-13 19:45 34.94991 -2.31931 9730 ft 295 kts 167°
2026-04-13 19:46 34.92984 -2.31293 9278 ft 299 kts 167°
2026-04-13 19:46 34.90996 -2.30660 9159 ft 291 kts 166°
2026-04-13 19:46 34.89053 -2.30041 8924 ft 288 kts 167°
2026-04-13 19:46 34.87094 -2.29422 8479 ft 293 kts 167°
2026-04-13 19:47 34.85186 -2.28597 8213 ft 291 kts 147°
2026-04-13 19:47 34.83766 -2.26883 7879 ft 290 kts 119°
2026-04-13 19:47 34.82969 -2.24643 7565 ft 287 kts 104°
2026-04-13 19:47 34.82351 -2.22327 7232 ft 287 kts 103°
2026-04-13 19:48 34.81757 -2.19996 6952 ft 287 kts 104°
2026-04-13 19:48 34.81161 -2.17697 6739 ft 283 kts 103°
2026-04-13 19:48 34.80560 -2.15422 6504 ft 282 kts 104°
2026-04-13 19:48 34.79955 -2.13145 6167 ft 283 kts 104°
2026-04-13 19:49 34.79352 -2.10881 5738 ft 282 kts 105°
2026-04-13 19:49 34.78742 -2.08616 5468 ft 280 kts 105°
2026-04-13 19:49 34.78135 -2.06363 5123 ft 282 kts 105°
2026-04-13 19:49 34.77474 -2.04154 4830 ft 284 kts 117°
2026-04-13 19:50 34.76183 -2.02379 4660 ft 279 kts 147°
2026-04-13 19:50 34.74433 -2.01428 4342 ft 269 kts 174°
2026-04-13 19:50 34.72670 -2.01367 4481 ft 240 kts 194°
2026-04-13 19:50 34.71127 -2.01633 4730 ft 211 kts 194°
2026-04-13 19:51 34.69705 -2.01821 4661 ft 201 kts 188°
2026-04-13 19:51 34.68311 -2.01808 4423 ft 197 kts 184°
2026-04-13 19:51 34.66959 -2.01729 4195 ft 189 kts 193°
2026-04-13 19:51 34.65866 -2.02324 4127 ft 162 kts 233°
2026-04-13 19:52 34.65354 -2.03396 4190 ft 134 kts 263°
2026-04-13 19:52 34.65409 -2.04524 4304 ft 135 kts 302°
2026-04-13 19:52 34.66075 -2.05039 4690 ft 109 kts 348°
2026-04-13 19:52 34.66936 -2.04799 4759 ft 145 kts 14°
2026-04-13 19:53 34.67850 -2.04324 4672 ft 140 kts 13°
2026-04-13 19:53 34.68748 -2.03895 4459 ft 139 kts
2026-04-13 19:53 34.69709 -2.03721 4230 ft 138 kts 355°
2026-04-13 19:53 34.70658 -2.03658 4101 ft 136 kts 355°
2026-04-13 19:54 34.71584 -2.03571 4045 ft 131 kts 356°
2026-04-13 19:54 34.72473 -2.03195 3968 ft 153 kts 26°
2026-04-13 19:54 34.73091 -2.02038 3900 ft 180 kts 71°
2026-04-13 19:54 34.73024 -2.00448 3696 ft 195 kts 101°
2026-04-13 19:55 34.72643 -1.98893 3559 ft 196 kts 104°
2026-04-13 19:55 34.72391 -1.97315 3467 ft 184 kts 91°
2026-04-13 19:55 34.72384 -1.95802 3430 ft 175 kts 84°
2026-04-13 19:55 34.72371 -1.94333 3407 ft 173 kts 88°
2026-04-13 19:56 34.72319 -1.92847 3507 ft 178 kts 89°
2026-04-13 19:56 34.72229 -1.91321 3502 ft 180 kts 89°
2026-04-13 19:56 34.72127 -1.89820 3497 ft 176 kts 89°
2026-04-13 19:56 34.72034 -1.88326 3340 ft 179 kts 88°
2026-04-13 19:57 34.72340 -1.86988 3206 ft 161 kts 40°
2026-04-13 19:57 34.73179 -1.86263 3245 ft 138 kts 10°
2026-04-13 19:57 34.74090 -1.86344 3059 ft 134 kts 333°
2026-04-13 19:57 34.74919 -1.86886 2868 ft 136 kts 313°
2026-04-13 19:58 34.75586 -1.87708 2672 ft 136 kts 308°
2026-04-13 19:58 34.76208 -1.88557 2461 ft 131 kts 308°
2026-04-13 19:58 34.76789 -1.89365 2340 ft 126 kts 308°
2026-04-13 19:58 34.77376 -1.90174 2139 ft 129 kts 308°
2026-04-13 19:59 34.77974 -1.91020 1923 ft 138 kts 310°
2026-04-13 19:59 34.78626 -1.91918 1740 ft 144 kts 310°
2026-04-13 19:59 34.79273 -1.92828 1557 ft 139 kts 310°
2026-04-13 19:59 34.79853 -1.93641 1522 ft 110 kts 311°
2026-04-13 20:00 34.80255 -1.94202 1526 ft 66 kts 311°
2026-04-13 20:00 34.80475 -1.94507 1525 ft 35 kts 310°
2026-04-13 20:00 34.80626 -1.94719 1519 ft 30 kts 306°
2026-04-13 20:00 34.80611 -1.94776 1521 ft 11 kts 216°
2026-04-13 20:01 34.80556 -1.94837 1524 ft 10 kts 221°
2026-04-13 20:01 34.80470 -1.94830 1523 ft 10 kts 143°
2026-04-13 20:01 34.80425 -1.94765 1521 ft 10 kts 127°
2026-04-13 20:01 34.80381 -1.94700 1525 ft 11 kts 131°
2026-04-13 20:02 34.80326 -1.94626 1523 ft 13 kts 132°
2026-04-13 20:02 34.80280 -1.94564 1525 ft 17 kts 132°
2026-04-13 20:02 34.80190 -1.94436 1525 ft 22 kts 130°
2026-04-13 20:02 34.80088 -1.94292 1523 ft 22 kts 130°
2026-04-13 20:03 34.79988 -1.94151 1525 ft 22 kts 130°
2026-04-13 20:03 34.79892 -1.94016 1520 ft 21 kts 130°
2026-04-13 20:03 34.79797 -1.93884 1524 ft 20 kts 131°
2026-04-13 20:03 34.79705 -1.93757 1525 ft 20 kts 131°
2026-04-13 20:04 34.79615 -1.93634 1525 ft 19 kts 131°
2026-04-13 20:04 34.79528 -1.93511 1525 ft 21 kts 130°
2026-04-13 20:04 34.79415 -1.93351 1525 ft 28 kts 130°
2026-04-13 20:04 34.79293 -1.93211 1524 ft 15 kts 181°
2026-04-13 20:05 34.79193 -1.93264 1524 ft 21 kts 212°
2026-04-13 20:05 34.79062 -1.93369 1522 ft 23 kts 213°
2026-04-13 20:05 34.78933 -1.93475 1523 ft 22 kts 214°
2026-04-13 20:05 34.78804 -1.93569 1521 ft 21 kts 212°
2026-04-13 20:06 34.78686 -1.93673 1521 ft 21 kts 216°
2026-04-13 20:06 34.78585 -1.93783 1518 ft 12 kts 233°
2026-04-13 20:06 34.78588 -1.93855 1500 ft 8 kts 297°
2026-04-13 20:06 34.78609 -1.93901 1523 ft 0 kts 299°